sensor_id;sensor_type;location;lat;lon;timestamp;temperature;humidity
20911;DHT22;10615;42.702;23.314;2022-12-18T00:00:47;7.90;99.90
20911;DHT22;10615;42.702;23.314;2022-12-18T00:01:48;7.90;99.90
20911;DHT22;10615;42.702;23.314;2022-12-18T00:02:49;7.90;99.90
20911;DHT22;10615;42.702;23.314;2022-12-18T00:03:51;7.80;99.90
20911;DHT22;10615;42.702;23.314;2022-12-18T00:04:51;7.90;99.90
20911;DHT22;10615;42.702;23.314;2022-12-18T00:05:52;7.90;99.90
20911;DHT22;10615;42.702;23.314;2022-12-18T00:06:53;7.90;99.90
20911;DHT22;10615;42.702;23.314;2022-12-18T00:07:54;7.80;99.90
20911;DHT22;10615;42.702;23.314;2022-12-18T00:08:56;7.80;99.90
20911;DHT22;10615;42.702;23.314;2022-12-18T00:09:57;7.70;99.90
20911;DHT22;10615;42.702;23.314;2022-12-18T00:11:07;7.70;99.90
20911;DHT22;10615;42.702;23.314;2022-12-18T00:12:08;7.70;99.90
20911;DHT22;10615;42.702;23.314;2022-12-18T00:13:10;7.70;99.90
20911;DHT22;10615;42.702;23.314;2022-12-18T00:14:11;7.70;99.90
20911;DHT22;10615;42.702;23.314;2022-12-18T00:15:12;7.70;99.90
20911;DHT22;10615;42.702;23.314;2022-12-18T00:16:18;7.70;99.90
20911;DHT22;10615;42.702;23.314;2022-12-18T00:17:20;7.70;99.90
20911;DHT22;10615;42.702;23.314;2022-12-18T00:18:21;7.70;99.90
20911;DHT22;10615;42.702;23.314;2022-12-18T00:19:22;7.70;99.90
20911;DHT22;10615;42.702;23.314;2022-12-18T00:20:22;7.70;99.90
20911;DHT22;10615;42.702;23.314;2022-12-18T00:21:27;7.70;99.90
20911;DHT22;10615;42.702;23.314;2022-12-18T00:22:28;7.70;99.90
20911;DHT22;10615;42.702;23.314;2022-12-18T00:23:29;7.60;99.90
20911;DHT22;10615;42.702;23.314;2022-12-18T00:24:30;7.70;99.90
20911;DHT22;10615;42.702;23.314;2022-12-18T00:25:33;7.70;99.90
20911;DHT22;10615;42.702;23.314;2022-12-18T00:26:36;7.70;99.90
20911;DHT22;10615;42.702;23.314;2022-12-18T00:27:37;7.60;99.90
20911;DHT22;10615;42.702;23.314;2022-12-18T00:28:38;7.60;99.90
20911;DHT22;10615;42.702;23.314;2022-12-18T00:29:41;7.60;99.90
20911;DHT22;10615;42.702;23.314;2022-12-18T00:30:42;7.60;99.90
20911;DHT22;10615;42.702;23.314;2022-12-18T00:31:43;7.60;99.90
20911;DHT22;10615;42.702;23.314;2022-12-18T00:32:43;7.50;99.90
20911;DHT22;10615;42.702;23.314;2022-12-18T00:33:44;7.50;99.90
20911;DHT22;10615;42.702;23.314;2022-12-18T00:34:45;7.50;99.90
20911;DHT22;10615;42.702;23.314;2022-12-18T00:35:45;7.50;99.90
20911;DHT22;10615;42.702;23.314;2022-12-18T00:36:47;7.50;99.90
20911;DHT22;10615;42.702;23.314;2022-12-18T00:37:48;7.50;99.90
20911;DHT22;10615;42.702;23.314;2022-12-18T00:38:49;7.50;99.90
20911;DHT22;10615;42.702;23.314;2022-12-18T00:39:50;7.40;99.90
20911;DHT22;10615;42.702;23.314;2022-12-18T00:40:51;7.40;99.90
20911;DHT22;10615;42.702;23.314;2022-12-18T00:41:51;7.40;99.90
20911;DHT22;10615;42.702;23.314;2022-12-18T00:43:10;7.40;99.90
20911;DHT22;10615;42.702;23.314;2022-12-18T00:44:14;7.40;99.90
20911;DHT22;10615;42.702;23.314;2022-12-18T00:45:14;7.60;99.90
20911;DHT22;10615;42.702;23.314;2022-12-18T00:46:15;7.40;99.90
20911;DHT22;10615;42.702;23.314;2022-12-18T00:47:16;7.40;99.90
20911;DHT22;10615;42.702;23.314;2022-12-18T00:48:17;7.30;99.90
20911;DHT22;10615;42.702;23.314;2022-12-18T00:49:19;7.30;99.90
20911;DHT22;10615;42.702;23.314;2022-12-18T00:50:20;7.30;99.90
20911;DHT22;10615;42.702;23.314;2022-12-18T00:51:20;7.30;99.90
20911;DHT22;10615;42.702;23.314;2022-12-18T00:52:21;7.30;99.90
20911;DHT22;10615;42.702;23.314;2022-12-18T00:53:22;7.20;99.90
20911;DHT22;10615;42.702;23.314;2022-12-18T00:54:23;7.20;99.90
20911;DHT22;10615;42.702;23.314;2022-12-18T00:55:23;7.20;99.90
20911;DHT22;10615;42.702;23.314;2022-12-18T00:56:24;7.20;99.90
20911;DHT22;10615;42.702;23.314;2022-12-18T00:57:25;7.20;99.90
20911;DHT22;10615;42.702;23.314;2022-12-18T00:58:25;7.10;99.90
20911;DHT22;10615;42.702;23.314;2022-12-18T00:59:26;7.20;99.90
20911;DHT22;10615;42.702;23.314;2022-12-18T01:00:26;7.20;99.90
20911;DHT22;10615;42.702;23.314;2022-12-18T01:01:27;7.20;99.90
20911;DHT22;10615;42.702;23.314;2022-12-18T01:02:28;7.10;99.90
20911;DHT22;10615;42.702;23.314;2022-12-18T01:03:28;7.10;99.90
20911;DHT22;10615;42.702;23.314;2022-12-18T01:04:31;7.10;99.90
20911;DHT22;10615;42.702;23.314;2022-12-18T01:05:32;7.10;99.90
20911;DHT22;10615;42.702;23.314;2022-12-18T01:06:33;7.10;99.90
20911;DHT22;10615;42.702;23.314;2022-12-18T01:07:34;7.10;99.90
20911;DHT22;10615;42.702;23.314;2022-12-18T01:08:35;7.00;99.90
20911;DHT22;10615;42.702;23.314;2022-12-18T01:09:36;7.00;99.90
20911;DHT22;10615;42.702;23.314;2022-12-18T01:10:40;7.00;99.90
20911;DHT22;10615;42.702;23.314;2022-12-18T01:11:41;7.00;99.90
20911;DHT22;10615;42.702;23.314;2022-12-18T01:12:42;6.90;99.90
20911;DHT22;10615;42.702;23.314;2022-12-18T01:13:43;6.90;99.90
20911;DHT22;10615;42.702;23.314;2022-12-18T01:14:44;6.90;99.90
20911;DHT22;10615;42.702;23.314;2022-12-18T01:15:49;6.90;99.90
20911;DHT22;10615;42.702;23.314;2022-12-18T01:16:49;6.90;99.90
20911;DHT22;10615;42.702;23.314;2022-12-18T01:17:52;6.90;99.90
20911;DHT22;10615;42.702;23.314;2022-12-18T01:18:53;6.90;99.90
20911;DHT22;10615;42.702;23.314;2022-12-18T01:19:54;6.90;99.90
20911;DHT22;10615;42.702;23.314;2022-12-18T01:20:55;6.90;99.90
20911;DHT22;10615;42.702;23.314;2022-12-18T01:21:56;6.90;99.90
20911;DHT22;10615;42.702;23.314;2022-12-18T01:22:57;6.90;99.90
20911;DHT22;10615;42.702;23.314;2022-12-18T01:23:57;6.90;99.90
20911;DHT22;10615;42.702;23.314;2022-12-18T01:24:58;6.90;99.90
20911;DHT22;10615;42.702;23.314;2022-12-18T01:26:07;6.90;99.90
20911;DHT22;10615;42.702;23.314;2022-12-18T01:27:08;6.90;99.90
20911;DHT22;10615;42.702;23.314;2022-12-18T01:28:08;6.90;99.90
20911;DHT22;10615;42.702;23.314;2022-12-18T01:29:09;6.90;99.90
20911;DHT22;10615;42.702;23.314;2022-12-18T01:30:10;6.90;99.90
20911;DHT22;10615;42.702;23.314;2022-12-18T01:31:23;6.90;99.90
20911;DHT22;10615;42.702;23.314;2022-12-18T01:32:24;6.80;99.90
20911;DHT22;10615;42.702;23.314;2022-12-18T01:33:25;6.80;99.90
20911;DHT22;10615;42.702;23.314;2022-12-18T01:34:25;6.80;99.90
20911;DHT22;10615;42.702;23.314;2022-12-18T01:35:26;6.70;99.90
20911;DHT22;10615;42.702;23.314;2022-12-18T01:36:32;6.70;99.90
20911;DHT22;10615;42.702;23.314;2022-12-18T01:37:33;6.70;99.90
20911;DHT22;10615;42.702;23.314;2022-12-18T01:38:34;6.80;99.90
20911;DHT22;10615;42.702;23.314;2022-12-18T01:39:34;6.70;99.90
20911;DHT22;10615;42.702;23.314;2022-12-18T01:40:35;6.70;99.90
20911;DHT22;10615;42.702;23.314;2022-12-18T01:41:37;6.70;99.90
20911;DHT22;10615;42.702;23.314;2022-12-18T01:42:56;6.70;99.90
20911;DHT22;10615;42.702;23.314;2022-12-18T01:43:57;6.70;99.90
20911;DHT22;10615;42.702;23.314;2022-12-18T01:46:02;6.60;99.90
20911;DHT22;10615;42.702;23.314;2022-12-18T01:47:03;6.60;99.90
20911;DHT22;10615;42.702;23.314;2022-12-18T01:48:06;6.60;99.90
20911;DHT22;10615;42.702;23.314;2022-12-18T01:49:09;6.60;99.90
20911;DHT22;10615;42.702;23.314;2022-12-18T01:50:17;6.60;99.90
20911;DHT22;10615;42.702;23.314;2022-12-18T01:51:18;6.60;99.90
20911;DHT22;10615;42.702;23.314;2022-12-18T01:52:20;6.60;99.90
20911;DHT22;10615;42.702;23.314;2022-12-18T01:53:23;6.60;99.90
20911;DHT22;10615;42.702;23.314;2022-12-18T01:54:24;6.60;99.90
20911;DHT22;10615;42.702;23.314;2022-12-18T01:55:28;6.60;99.90
20911;DHT22;10615;42.702;23.314;2022-12-18T01:56:29;6.60;99.90
20911;DHT22;10615;42.702;23.314;2022-12-18T01:57:29;6.60;99.90
20911;DHT22;10615;42.702;23.314;2022-12-18T01:59:55;6.60;99.90
20911;DHT22;10615;42.702;23.314;2022-12-18T02:00:57;6.50;99.90
20911;DHT22;10615;42.702;23.314;2022-12-18T02:01:57;6.50;99.90
20911;DHT22;10615;42.702;23.314;2022-12-18T02:02:58;6.50;99.90
20911;DHT22;10615;42.702;23.314;2022-12-18T02:04:21;6.50;99.90
20911;DHT22;10615;42.702;23.314;2022-12-18T02:06:53;6.40;99.90
20911;DHT22;10615;42.702;23.314;2022-12-18T02:09:22;6.40;99.90
20911;DHT22;10615;42.702;23.314;2022-12-18T02:12:07;6.40;99.90
20911;DHT22;10615;42.702;23.314;2022-12-18T02:13:21;6.40;99.90
20911;DHT22;10615;42.702;23.314;2022-12-18T02:15:55;6.40;99.90
20911;DHT22;10615;42.702;23.314;2022-12-18T02:17:17;6.40;99.90
20911;DHT22;10615;42.702;23.314;2022-12-18T02:18:23;6.30;99.90
20911;DHT22;10615;42.702;23.314;2022-12-18T02:20:43;6.40;99.90
20911;DHT22;10615;42.702;23.314;2022-12-18T02:27:08;6.40;99.90
20911;DHT22;10615;42.702;23.314;2022-12-18T02:28:13;6.40;99.90
20911;DHT22;10615;42.702;23.314;2022-12-18T02:29:22;6.40;99.90
20911;DHT22;10615;42.702;23.314;2022-12-18T02:30:24;6.40;99.90
20911;DHT22;10615;42.702;23.314;2022-12-18T02:31:28;6.40;99.90
20911;DHT22;10615;42.702;23.314;2022-12-18T02:32:46;6.40;99.90
20911;DHT22;10615;42.702;23.314;2022-12-18T02:33:49;6.40;99.90
20911;DHT22;10615;42.702;23.314;2022-12-18T02:34:53;6.40;99.90
20911;DHT22;10615;42.702;23.314;2022-12-18T02:35:56;6.40;99.90
20911;DHT22;10615;42.702;23.314;2022-12-18T02:37:01;6.40;99.90
20911;DHT22;10615;42.702;23.314;2022-12-18T02:38:03;6.40;99.90
20911;DHT22;10615;42.702;23.314;2022-12-18T02:39:05;6.40;99.90
20911;DHT22;10615;42.702;23.314;2022-12-18T02:40:08;6.30;99.90
20911;DHT22;10615;42.702;23.314;2022-12-18T02:41:10;6.30;99.90
20911;DHT22;10615;42.702;23.314;2022-12-18T02:42:11;6.30;99.90
20911;DHT22;10615;42.702;23.314;2022-12-18T02:43:14;6.30;99.90
20911;DHT22;10615;42.702;23.314;2022-12-18T02:44:15;6.30;99.90
20911;DHT22;10615;42.702;23.314;2022-12-18T02:45:16;6.30;99.90
20911;DHT22;10615;42.702;23.314;2022-12-18T02:46:32;6.30;99.90
20911;DHT22;10615;42.702;23.314;2022-12-18T02:47:37;6.30;99.90
20911;DHT22;10615;42.702;23.314;2022-12-18T02:48:38;6.30;99.90
20911;DHT22;10615;42.702;23.314;2022-12-18T02:50:45;6.20;99.90
20911;DHT22;10615;42.702;23.314;2022-12-18T02:54:13;6.20;99.90
20911;DHT22;10615;42.702;23.314;2022-12-18T02:56:28;6.10;99.90
20911;DHT22;10615;42.702;23.314;2022-12-18T02:57:34;6.20;99.90
20911;DHT22;10615;42.702;23.314;2022-12-18T02:58:54;6.20;99.90
20911;DHT22;10615;42.702;23.314;2022-12-18T03:00:04;6.10;99.90
20911;DHT22;10615;42.702;23.314;2022-12-18T03:03:31;6.10;99.90
20911;DHT22;10615;42.702;23.314;2022-12-18T03:04:47;6.20;99.90
20911;DHT22;10615;42.702;23.314;2022-12-18T03:06:06;6.20;99.90
20911;DHT22;10615;42.702;23.314;2022-12-18T03:07:15;6.10;99.90
20911;DHT22;10615;42.702;23.314;2022-12-18T03:08:24;6.10;99.90
20911;DHT22;10615;42.702;23.314;2022-12-18T03:09:38;6.10;99.90
20911;DHT22;10615;42.702;23.314;2022-12-18T03:10:51;6.10;99.90
20911;DHT22;10615;42.702;23.314;2022-12-18T03:11:58;6.10;99.90
20911;DHT22;10615;42.702;23.314;2022-12-18T03:14:34;6.10;99.90
20911;DHT22;10615;42.702;23.314;2022-12-18T03:15:44;6.10;99.90
20911;DHT22;10615;42.702;23.314;2022-12-18T03:16:47;6.10;99.90
20911;DHT22;10615;42.702;23.314;2022-12-18T03:18:19;6.10;99.90
20911;DHT22;10615;42.702;23.314;2022-12-18T03:19:26;6.10;99.90
20911;DHT22;10615;42.702;23.314;2022-12-18T03:20:29;6.10;99.90
20911;DHT22;10615;42.702;23.314;2022-12-18T03:21:44;6.00;99.90
20911;DHT22;10615;42.702;23.314;2022-12-18T03:22:50;6.10;99.90
20911;DHT22;10615;42.702;23.314;2022-12-18T03:23:53;6.00;99.90
20911;DHT22;10615;42.702;23.314;2022-12-18T03:24:56;6.10;99.90
20911;DHT22;10615;42.702;23.314;2022-12-18T03:26:00;6.10;99.90
20911;DHT22;10615;42.702;23.314;2022-12-18T03:27:03;6.10;99.90
20911;DHT22;10615;42.702;23.314;2022-12-18T03:28:09;6.10;99.90
20911;DHT22;10615;42.702;23.314;2022-12-18T03:29:25;6.10;99.90
20911;DHT22;10615;42.702;23.314;2022-12-18T03:30:28;6.10;99.90
20911;DHT22;10615;42.702;23.314;2022-12-18T03:31:31;6.10;99.90
20911;DHT22;10615;42.702;23.314;2022-12-18T03:32:47;6.00;99.90
20911;DHT22;10615;42.702;23.314;2022-12-18T03:33:54;6.00;99.90
20911;DHT22;10615;42.702;23.314;2022-12-18T03:34:58;6.00;99.90
20911;DHT22;10615;42.702;23.314;2022-12-18T03:36:01;6.00;99.90
20911;DHT22;10615;42.702;23.314;2022-12-18T03:37:05;6.10;99.90
20911;DHT22;10615;42.702;23.314;2022-12-18T03:38:06;6.10;99.90
20911;DHT22;10615;42.702;23.314;2022-12-18T03:39:07;6.10;99.90
20911;DHT22;10615;42.702;23.314;2022-12-18T03:40:08;6.10;99.90
20911;DHT22;10615;42.702;23.314;2022-12-18T03:41:28;6.10;99.90
20911;DHT22;10615;42.702;23.314;2022-12-18T03:42:48;6.10;99.90
20911;DHT22;10615;42.702;23.314;2022-12-18T03:44:11;6.10;99.90
20911;DHT22;10615;42.702;23.314;2022-12-18T03:46:30;6.10;99.90
20911;DHT22;10615;42.702;23.314;2022-12-18T03:47:46;6.20;99.90
20911;DHT22;10615;42.702;23.314;2022-12-18T03:48:56;6.10;99.90
20911;DHT22;10615;42.702;23.314;2022-12-18T03:50:27;6.10;99.90
20911;DHT22;10615;42.702;23.314;2022-12-18T03:51:36;6.10;99.90
20911;DHT22;10615;42.702;23.314;2022-12-18T03:52:48;6.10;99.90
20911;DHT22;10615;42.702;23.314;2022-12-18T03:53:52;6.10;99.90
20911;DHT22;10615;42.702;23.314;2022-12-18T03:54:56;6.10;99.90
20911;DHT22;10615;42.702;23.314;2022-12-18T03:55:59;6.10;99.90
20911;DHT22;10615;42.702;23.314;2022-12-18T03:57:11;6.00;99.90
20911;DHT22;10615;42.702;23.314;2022-12-18T03:58:16;6.00;99.90
20911;DHT22;10615;42.702;23.314;2022-12-18T03:59:19;6.00;99.90
20911;DHT22;10615;42.702;23.314;2022-12-18T04:00:20;6.00;99.90
20911;DHT22;10615;42.702;23.314;2022-12-18T04:01:27;6.00;99.90
20911;DHT22;10615;42.702;23.314;2022-12-18T04:02:31;6.00;99.90
20911;DHT22;10615;42.702;23.314;2022-12-18T04:03:33;5.90;99.90
20911;DHT22;10615;42.702;23.314;2022-12-18T04:04:37;5.90;99.90
20911;DHT22;10615;42.702;23.314;2022-12-18T04:05:39;5.90;99.90
20911;DHT22;10615;42.702;23.314;2022-12-18T04:06:41;5.80;99.90
20911;DHT22;10615;42.702;23.314;2022-12-18T04:07:45;5.80;99.90
20911;DHT22;10615;42.702;23.314;2022-12-18T04:08:47;5.80;99.90
20911;DHT22;10615;42.702;23.314;2022-12-18T04:09:49;5.70;99.90
20911;DHT22;10615;42.702;23.314;2022-12-18T04:10:50;5.70;99.90
20911;DHT22;10615;42.702;23.314;2022-12-18T04:11:51;5.80;99.90
20911;DHT22;10615;42.702;23.314;2022-12-18T04:12:56;5.80;99.90
20911;DHT22;10615;42.702;23.314;2022-12-18T04:13:57;5.80;99.90
20911;DHT22;10615;42.702;23.314;2022-12-18T04:14:58;5.90;99.90
20911;DHT22;10615;42.702;23.314;2022-12-18T04:15:59;5.80;99.90
20911;DHT22;10615;42.702;23.314;2022-12-18T04:16:59;5.90;99.90
20911;DHT22;10615;42.702;23.314;2022-12-18T04:18:00;5.90;99.90
20911;DHT22;10615;42.702;23.314;2022-12-18T04:19:01;5.90;99.90
20911;DHT22;10615;42.702;23.314;2022-12-18T04:20:01;5.90;99.90
20911;DHT22;10615;42.702;23.314;2022-12-18T04:21:03;5.90;99.90
20911;DHT22;10615;42.702;23.314;2022-12-18T04:22:03;5.90;99.90
20911;DHT22;10615;42.702;23.314;2022-12-18T04:23:04;5.90;99.90
20911;DHT22;10615;42.702;23.314;2022-12-18T04:24:05;5.90;99.90
20911;DHT22;10615;42.702;23.314;2022-12-18T04:25:05;5.90;99.90
20911;DHT22;10615;42.702;23.314;2022-12-18T04:26:06;5.90;99.90
20911;DHT22;10615;42.702;23.314;2022-12-18T04:27:07;6.00;99.90
20911;DHT22;10615;42.702;23.314;2022-12-18T04:28:07;6.00;99.90
20911;DHT22;10615;42.702;23.314;2022-12-18T04:29:08;6.00;99.90
20911;DHT22;10615;42.702;23.314;2022-12-18T04:30:09;6.00;99.90
20911;DHT22;10615;42.702;23.314;2022-12-18T04:31:10;6.00;99.90
20911;DHT22;10615;42.702;23.314;2022-12-18T04:32:10;6.00;99.90
20911;DHT22;10615;42.702;23.314;2022-12-18T04:33:12;6.00;99.90
20911;DHT22;10615;42.702;23.314;2022-12-18T04:34:13;6.00;99.90
20911;DHT22;10615;42.702;23.314;2022-12-18T04:35:13;6.00;99.90
20911;DHT22;10615;42.702;23.314;2022-12-18T04:36:14;6.00;99.90
20911;DHT22;10615;42.702;23.314;2022-12-18T04:37:15;6.00;99.90
20911;DHT22;10615;42.702;23.314;2022-12-18T04:38:15;5.90;99.90
20911;DHT22;10615;42.702;23.314;2022-12-18T04:39:19;5.90;99.90
20911;DHT22;10615;42.702;23.314;2022-12-18T04:40:19;5.90;99.90
20911;DHT22;10615;42.702;23.314;2022-12-18T04:41:20;5.90;99.90
20911;DHT22;10615;42.702;23.314;2022-12-18T04:42:21;5.80;99.90
20911;DHT22;10615;42.702;23.314;2022-12-18T04:43:21;5.80;99.90
20911;DHT22;10615;42.702;23.314;2022-12-18T04:44:22;5.80;99.90
20911;DHT22;10615;42.702;23.314;2022-12-18T04:45:23;5.80;99.90
20911;DHT22;10615;42.702;23.314;2022-12-18T04:46:23;5.80;99.90
20911;DHT22;10615;42.702;23.314;2022-12-18T04:47:24;5.80;99.90
20911;DHT22;10615;42.702;23.314;2022-12-18T04:48:24;5.80;99.90
20911;DHT22;10615;42.702;23.314;2022-12-18T04:49:25;5.70;99.90
20911;DHT22;10615;42.702;23.314;2022-12-18T04:50:26;5.70;99.90
20911;DHT22;10615;42.702;23.314;2022-12-18T04:51:27;5.70;99.90
20911;DHT22;10615;42.702;23.314;2022-12-18T04:52:27;5.70;99.90
20911;DHT22;10615;42.702;23.314;2022-12-18T04:53:28;5.70;99.90
20911;DHT22;10615;42.702;23.314;2022-12-18T04:54:29;5.70;99.90
20911;DHT22;10615;42.702;23.314;2022-12-18T04:55:29;5.70;99.90
20911;DHT22;10615;42.702;23.314;2022-12-18T04:56:31;5.70;99.90
20911;DHT22;10615;42.702;23.314;2022-12-18T04:57:32;5.70;99.90
20911;DHT22;10615;42.702;23.314;2022-12-18T04:58:33;5.70;99.90
20911;DHT22;10615;42.702;23.314;2022-12-18T04:59:33;5.70;99.90
20911;DHT22;10615;42.702;23.314;2022-12-18T05:00:34;5.70;99.90
20911;DHT22;10615;42.702;23.314;2022-12-18T05:01:34;5.70;99.90
20911;DHT22;10615;42.702;23.314;2022-12-18T05:02:35;5.60;99.90
20911;DHT22;10615;42.702;23.314;2022-12-18T05:03:36;5.60;99.90
20911;DHT22;10615;42.702;23.314;2022-12-18T05:04:37;5.60;99.90
20911;DHT22;10615;42.702;23.314;2022-12-18T05:05:38;5.60;99.90
20911;DHT22;10615;42.702;23.314;2022-12-18T05:06:38;5.60;99.90
20911;DHT22;10615;42.702;23.314;2022-12-18T05:07:39;5.60;99.90
20911;DHT22;10615;42.702;23.314;2022-12-18T05:08:40;5.60;99.90
20911;DHT22;10615;42.702;23.314;2022-12-18T05:09:40;5.60;99.90
20911;DHT22;10615;42.702;23.314;2022-12-18T05:10:41;5.60;99.90
20911;DHT22;10615;42.702;23.314;2022-12-18T05:11:42;5.60;99.90
20911;DHT22;10615;42.702;23.314;2022-12-18T05:12:42;5.60;99.90
20911;DHT22;10615;42.702;23.314;2022-12-18T05:13:58;5.60;99.90
20911;DHT22;10615;42.702;23.314;2022-12-18T05:14:58;5.60;99.90
20911;DHT22;10615;42.702;23.314;2022-12-18T05:15:59;5.60;99.90
20911;DHT22;10615;42.702;23.314;2022-12-18T05:17:00;5.60;99.90
20911;DHT22;10615;42.702;23.314;2022-12-18T05:18:02;5.60;99.90
20911;DHT22;10615;42.702;23.314;2022-12-18T05:19:03;5.60;99.90
20911;DHT22;10615;42.702;23.314;2022-12-18T05:20:04;5.60;99.90
20911;DHT22;10615;42.702;23.314;2022-12-18T05:21:05;5.60;99.90
20911;DHT22;10615;42.702;23.314;2022-12-18T05:23:28;5.50;99.90
20911;DHT22;10615;42.702;23.314;2022-12-18T05:24:29;5.50;99.90
20911;DHT22;10615;42.702;23.314;2022-12-18T05:25:30;5.50;99.90
20911;DHT22;10615;42.702;23.314;2022-12-18T05:26:30;5.50;99.90
20911;DHT22;10615;42.702;23.314;2022-12-18T05:27:31;5.50;99.90
20911;DHT22;10615;42.702;23.314;2022-12-18T05:28:33;5.50;99.90
20911;DHT22;10615;42.702;23.314;2022-12-18T05:29:34;5.50;99.90
20911;DHT22;10615;42.702;23.314;2022-12-18T05:30:35;5.60;99.90
20911;DHT22;10615;42.702;23.314;2022-12-18T05:31:35;5.60;99.90
20911;DHT22;10615;42.702;23.314;2022-12-18T05:32:36;5.60;99.90
20911;DHT22;10615;42.702;23.314;2022-12-18T05:33:37;5.60;99.90
20911;DHT22;10615;42.702;23.314;2022-12-18T05:34:38;5.60;99.90
20911;DHT22;10615;42.702;23.314;2022-12-18T05:35:38;5.60;99.90
20911;DHT22;10615;42.702;23.314;2022-12-18T05:36:39;5.60;99.90
20911;DHT22;10615;42.702;23.314;2022-12-18T05:37:40;5.70;99.90
20911;DHT22;10615;42.702;23.314;2022-12-18T05:38:40;5.70;99.90
20911;DHT22;10615;42.702;23.314;2022-12-18T05:39:42;5.60;99.90
20911;DHT22;10615;42.702;23.314;2022-12-18T05:40:43;5.60;99.90
20911;DHT22;10615;42.702;23.314;2022-12-18T05:41:44;5.60;99.90
20911;DHT22;10615;42.702;23.314;2022-12-18T05:42:44;5.60;99.90
20911;DHT22;10615;42.702;23.314;2022-12-18T05:43:45;5.60;99.90
20911;DHT22;10615;42.702;23.314;2022-12-18T05:44:46;5.60;99.90
20911;DHT22;10615;42.702;23.314;2022-12-18T05:45:46;5.60;99.90
20911;DHT22;10615;42.702;23.314;2022-12-18T05:46:47;5.60;99.90
20911;DHT22;10615;42.702;23.314;2022-12-18T05:47:48;5.50;99.90
20911;DHT22;10615;42.702;23.314;2022-12-18T05:48:48;5.50;99.90
20911;DHT22;10615;42.702;23.314;2022-12-18T05:49:50;5.50;99.90
20911;DHT22;10615;42.702;23.314;2022-12-18T05:50:51;5.50;99.90
20911;DHT22;10615;42.702;23.314;2022-12-18T05:51:51;5.50;99.90
20911;DHT22;10615;42.702;23.314;2022-12-18T05:52:52;5.50;99.90
20911;DHT22;10615;42.702;23.314;2022-12-18T05:53:53;5.50;99.90
20911;DHT22;10615;42.702;23.314;2022-12-18T05:54:53;5.40;99.90
20911;DHT22;10615;42.702;23.314;2022-12-18T05:55:54;5.40;99.90
20911;DHT22;10615;42.702;23.314;2022-12-18T05:56:59;5.40;99.90
20911;DHT22;10615;42.702;23.314;2022-12-18T05:58:00;5.40;99.90
20911;DHT22;10615;42.702;23.314;2022-12-18T05:59:01;5.40;99.90
20911;DHT22;10615;42.702;23.314;2022-12-18T06:00:03;5.40;99.90
20911;DHT22;10615;42.702;23.314;2022-12-18T06:01:13;5.40;99.90
20911;DHT22;10615;42.702;23.314;2022-12-18T06:02:14;5.40;99.90
20911;DHT22;10615;42.702;23.314;2022-12-18T06:03:15;5.40;99.90
20911;DHT22;10615;42.702;23.314;2022-12-18T06:04:15;5.40;99.90
20911;DHT22;10615;42.702;23.314;2022-12-18T06:05:16;5.40;99.90
20911;DHT22;10615;42.702;23.314;2022-12-18T06:06:20;5.40;99.90
20911;DHT22;10615;42.702;23.314;2022-12-18T06:07:21;5.40;99.90
20911;DHT22;10615;42.702;23.314;2022-12-18T06:08:21;5.40;99.90
20911;DHT22;10615;42.702;23.314;2022-12-18T06:09:22;5.40;99.90
20911;DHT22;10615;42.702;23.314;2022-12-18T06:10:22;5.50;99.90
20911;DHT22;10615;42.702;23.314;2022-12-18T06:11:25;5.50;99.90
20911;DHT22;10615;42.702;23.314;2022-12-18T06:12:26;5.50;99.90
20911;DHT22;10615;42.702;23.314;2022-12-18T06:13:27;5.50;99.90
20911;DHT22;10615;42.702;23.314;2022-12-18T06:14:28;5.50;99.90
20911;DHT22;10615;42.702;23.314;2022-12-18T06:15:29;5.40;99.90
20911;DHT22;10615;42.702;23.314;2022-12-18T06:16:30;5.50;99.90
20911;DHT22;10615;42.702;23.314;2022-12-18T06:17:32;5.50;99.90
20911;DHT22;10615;42.702;23.314;2022-12-18T06:18:33;5.50;99.90
20911;DHT22;10615;42.702;23.314;2022-12-18T06:19:34;5.50;99.90
20911;DHT22;10615;42.702;23.314;2022-12-18T06:20:35;5.50;99.90
20911;DHT22;10615;42.702;23.314;2022-12-18T06:21:37;5.40;99.90
20911;DHT22;10615;42.702;23.314;2022-12-18T06:22:37;5.40;99.90
20911;DHT22;10615;42.702;23.314;2022-12-18T06:23:38;5.40;99.90
20911;DHT22;10615;42.702;23.314;2022-12-18T06:24:39;5.40;99.90
20911;DHT22;10615;42.702;23.314;2022-12-18T06:25:40;5.40;99.90
20911;DHT22;10615;42.702;23.314;2022-12-18T06:26:40;5.40;99.90
20911;DHT22;10615;42.702;23.314;2022-12-18T06:27:41;5.40;99.90
20911;DHT22;10615;42.702;23.314;2022-12-18T06:28:42;5.40;99.90
20911;DHT22;10615;42.702;23.314;2022-12-18T06:29:43;5.40;99.90
20911;DHT22;10615;42.702;23.314;2022-12-18T06:30:44;5.30;99.90
20911;DHT22;10615;42.702;23.314;2022-12-18T06:31:45;5.40;99.90
20911;DHT22;10615;42.702;23.314;2022-12-18T06:32:47;5.40;99.90
20911;DHT22;10615;42.702;23.314;2022-12-18T06:33:48;5.40;99.90
20911;DHT22;10615;42.702;23.314;2022-12-18T06:34:49;5.40;99.90
20911;DHT22;10615;42.702;23.314;2022-12-18T06:35:49;5.40;99.90
20911;DHT22;10615;42.702;23.314;2022-12-18T06:36:50;5.50;99.90
20911;DHT22;10615;42.702;23.314;2022-12-18T06:37:51;5.50;99.90
20911;DHT22;10615;42.702;23.314;2022-12-18T06:38:51;5.50;99.80
20911;DHT22;10615;42.702;23.314;2022-12-18T06:39:53;5.40;99.60
20911;DHT22;10615;42.702;23.314;2022-12-18T06:40:54;5.50;99.60
20911;DHT22;10615;42.702;23.314;2022-12-18T06:41:54;5.40;99.60
20911;DHT22;10615;42.702;23.314;2022-12-18T06:42:55;5.40;99.50
20911;DHT22;10615;42.702;23.314;2022-12-18T06:43:57;5.50;99.70
20911;DHT22;10615;42.702;23.314;2022-12-18T06:44:57;5.50;99.80
20911;DHT22;10615;42.702;23.314;2022-12-18T06:46:02;5.40;99.60
20911;DHT22;10615;42.702;23.314;2022-12-18T06:47:03;5.50;99.50
20911;DHT22;10615;42.702;23.314;2022-12-18T06:48:03;5.40;99.40
20911;DHT22;10615;42.702;23.314;2022-12-18T06:49:04;5.50;99.30
20911;DHT22;10615;42.702;23.314;2022-12-18T06:50:05;5.50;99.20
20911;DHT22;10615;42.702;23.314;2022-12-18T06:51:06;5.50;99.10
20911;DHT22;10615;42.702;23.314;2022-12-18T06:52:07;5.50;98.90
20911;DHT22;10615;42.702;23.314;2022-12-18T06:53:08;5.60;99.00
20911;DHT22;10615;42.702;23.314;2022-12-18T06:54:09;5.60;99.10
20911;DHT22;10615;42.702;23.314;2022-12-18T06:55:10;5.70;99.00
20911;DHT22;10615;42.702;23.314;2022-12-18T06:56:11;5.60;98.90
20911;DHT22;10615;42.702;23.314;2022-12-18T06:57:12;5.60;98.70
20911;DHT22;10615;42.702;23.314;2022-12-18T06:58:12;5.70;98.60
20911;DHT22;10615;42.702;23.314;2022-12-18T06:59:13;5.70;98.20
20911;DHT22;10615;42.702;23.314;2022-12-18T07:00:14;5.70;97.80
20911;DHT22;10615;42.702;23.314;2022-12-18T07:01:15;5.70;97.60
20911;DHT22;10615;42.702;23.314;2022-12-18T07:02:16;5.70;97.40
20911;DHT22;10615;42.702;23.314;2022-12-18T07:03:17;5.70;97.20